createdAt,value
2022-11-15T00:00:34.512Z,0.50
2022-11-15T00:05:56.367Z,0.35
2022-11-15T00:11:18.383Z,0.50
2022-11-15T00:16:40.434Z,0.40
2022-11-15T00:22:03.089Z,0.43
2022-11-15T00:27:25.354Z,0.40
2022-11-15T00:32:47.505Z,0.68
2022-11-15T00:38:10.189Z,0.63
2022-11-15T00:43:33.463Z,0.65
2022-11-15T00:48:55.869Z,0.30
2022-11-15T00:54:17.832Z,0.60
2022-11-15T00:59:39.946Z,0.80
2022-11-15T01:05:02.495Z,0.50
2022-11-15T01:10:25.476Z,0.47
2022-11-15T01:15:47.422Z,0.40
2022-11-15T01:21:12.407Z,0.50
2022-11-15T01:26:37.831Z,0.50
2022-11-15T01:32:00.663Z,0.55
2022-11-15T01:37:23.101Z,0.43
2022-11-15T01:42:45.641Z,0.68
2022-11-15T01:48:12.377Z,0.52
2022-11-15T01:53:37.648Z,0.55
2022-11-15T01:59:04.675Z,0.77
2022-11-15T02:04:31.963Z,0.45
2022-11-15T02:09:55.285Z,0.57
2022-11-15T02:15:18.113Z,1.50
2022-11-15T02:20:55.058Z,1.02
2022-11-15T02:26:35.200Z,0.80
2022-11-15T02:32:31.236Z,0.82
2022-11-15T02:38:04.510Z,0.77
2022-11-15T02:43:58.519Z,1.00
2022-11-15T02:49:21.313Z,0.88
2022-11-15T02:54:43.441Z,1.15
2022-11-15T03:00:09.204Z,0.75
2022-11-15T03:06:11.267Z,0.57
2022-11-15T03:11:41.425Z,0.50
2022-11-15T03:17:21.769Z,0.60
2022-11-15T03:25:06.209Z,0.60
2022-11-15T03:30:30.126Z,0.40
2022-11-15T03:35:54.675Z,0.60
2022-11-15T03:41:30.828Z,0.73
2022-11-15T03:52:35.233Z,0.68
2022-11-15T03:58:00.849Z,0.50
2022-11-15T04:03:23.119Z,0.40
2022-11-15T04:08:45.333Z,0.50
2022-11-15T04:14:07.575Z,0.60
2022-11-15T04:19:48.435Z,0.40
2022-11-15T04:25:10.920Z,0.63
2022-11-15T04:30:33.661Z,0.70
2022-11-15T04:36:13.949Z,0.80
2022-11-15T07:33:21.572Z,0.73
2022-11-15T07:38:43.466Z,0.70
2022-11-15T07:44:05.029Z,0.77
2022-11-15T07:49:26.671Z,0.88
2022-11-15T07:54:47.904Z,0.50
2022-11-15T08:00:09.904Z,0.80
2022-11-15T08:05:31.428Z,0.60
2022-11-15T08:10:53.311Z,1.50
2022-11-15T08:16:14.859Z,0.68
2022-11-15T08:21:36.472Z,1.75
2022-11-15T08:26:57.723Z,1.20
2022-11-15T08:32:19.096Z,2.35
2022-11-15T08:37:40.683Z,1.15
2022-11-15T08:43:03.797Z,0.85
2022-11-15T08:48:25.313Z,1.00
2022-11-15T08:53:47.179Z,1.60
2022-11-15T08:59:08.663Z,1.48
2022-11-15T09:04:30.216Z,0.90
2022-11-15T09:09:51.803Z,0.60
2022-11-15T09:15:13.048Z,0.90
2022-11-15T09:20:34.492Z,1.10
2022-11-15T09:26:01.712Z,1.00
2022-11-15T09:31:23.148Z,0.60
2022-11-15T09:36:44.452Z,0.98
2022-11-15T09:42:27.444Z,0.80
2022-11-15T09:48:14.611Z,1.15
2022-11-15T09:54:30.475Z,0.75
2022-11-15T09:59:48.993Z,1.05
2022-11-15T10:04:53.127Z,2.00
2022-11-15T10:10:03.200Z,1.75
2022-11-15T10:15:14.347Z,1.38
2022-11-15T10:20:23.031Z,2.67
2022-11-15T10:25:33.556Z,2.63
2022-11-15T10:30:48.617Z,1.75
2022-11-15T10:36:14.237Z,2.05
2022-11-15T10:41:39.079Z,2.75
2022-11-15T10:51:58.249Z,2.50
2022-11-15T10:57:06.620Z,3.08
2022-11-15T11:02:24.331Z,2.35
2022-11-15T11:07:31.364Z,1.67
2022-11-15T11:12:35.231Z,4.00
2022-11-15T11:17:59.738Z,1.95
2022-11-15T11:23:23.781Z,7.28
2022-11-15T11:28:29.524Z,3.80
2022-11-15T11:38:57.186Z,1.48
2022-11-15T11:44:30.869Z,0.60
2022-11-15T11:49:52.055Z,2.03
2022-11-15T11:55:24.318Z,1.73
2022-11-15T12:00:32.429Z,1.05
2022-11-15T12:05:59.086Z,1.30
2022-11-15T12:11:14.694Z,0.65
2022-11-15T12:16:34.744Z,1.90
2022-11-15T12:22:28.066Z,0.90
2022-11-15T12:27:48.133Z,0.73
2022-11-15T12:33:01.832Z,3.33
2022-11-15T12:38:05.451Z,0.68
2022-11-15T12:47:27.484Z,1.67
2022-11-15T12:52:30.402Z,0.88
2022-11-15T12:57:39.859Z,1.30
2022-11-15T13:02:48.676Z,10.23
2022-11-15T13:07:51.443Z,1.48
2022-11-15T13:13:00.202Z,0.93
2022-11-15T13:18:30.339Z,1.27
2022-11-15T13:23:33.467Z,1.52
2022-11-15T13:28:45.786Z,1.27
2022-11-15T13:33:48.641Z,1.42
2022-11-15T13:39:00.620Z,2.45
2022-11-15T13:44:05.255Z,4.80
2022-11-15T13:49:12.706Z,7.22
2022-11-15T13:54:32.170Z,7.22
2022-11-15T13:59:38.221Z,4.97
2022-11-15T14:04:58.303Z,7.05
2022-11-15T14:10:19.073Z,7.75
2022-11-15T14:15:30.500Z,6.55
2022-11-15T14:20:39.295Z,6.15
2022-11-15T14:25:54.429Z,5.10
2022-11-15T14:30:59.639Z,5.30
2022-11-15T14:36:15.456Z,6.72
2022-11-15T14:41:27.572Z,6.30
2022-11-15T14:46:30.458Z,7.00
2022-11-15T14:51:34.468Z,5.75
2022-11-15T14:56:37.444Z,4.07
2022-11-15T15:01:40.771Z,4.35
2022-11-15T15:06:43.598Z,3.70
2022-11-15T15:11:47.048Z,4.85
2022-11-15T15:16:49.899Z,5.82
2022-11-15T15:21:52.692Z,4.25
2022-11-15T15:26:55.520Z,3.83
2022-11-15T15:31:58.338Z,3.50
2022-11-15T15:37:26.819Z,3.13
2022-11-15T15:42:29.669Z,4.15
2022-11-15T15:47:32.703Z,4.30
2022-11-15T15:52:35.492Z,3.75
2022-11-15T15:57:38.396Z,4.88
2022-11-15T16:02:42.764Z,6.63
2022-11-15T16:07:46.172Z,6.63
2022-11-15T16:12:49.515Z,5.20
2022-11-15T16:18:00.314Z,5.50
2022-11-15T16:23:09.042Z,4.32
2022-11-15T16:28:25.136Z,4.15
2022-11-15T16:33:28.004Z,4.60
2022-11-15T16:38:31.904Z,4.55
2022-11-15T16:43:35.153Z,4.75
2022-11-15T16:48:38.454Z,4.55
2022-11-15T16:53:41.542Z,6.57
2022-11-15T16:58:44.371Z,4.97
2022-11-15T17:03:47.390Z,4.22
2022-11-15T17:08:50.272Z,5.97
2022-11-15T17:13:58.724Z,4.97
2022-11-15T17:19:02.123Z,5.20
2022-11-15T17:24:05.112Z,4.57
2022-11-15T17:29:08.354Z,4.80
2022-11-15T17:34:11.173Z,3.97
2022-11-15T17:39:14.001Z,4.30
2022-11-15T17:44:17.233Z,3.55
2022-11-15T17:49:20.094Z,4.00
2022-11-15T17:54:22.936Z,4.45
2022-11-15T17:59:26.022Z,5.07
2022-11-15T18:04:29.273Z,4.10
2022-11-15T18:09:32.855Z,4.68
2022-11-15T18:14:37.396Z,3.55
2022-11-15T18:19:40.243Z,4.43
2022-11-15T18:24:44.283Z,3.65
2022-11-15T18:29:47.125Z,4.13
2022-11-15T18:34:49.933Z,3.92
2022-11-15T18:39:54.086Z,6.90
2022-11-15T18:44:57.343Z,6.28
2022-11-15T18:50:00.246Z,6.32
2022-11-15T18:55:03.864Z,5.45
2022-11-15T19:00:09.218Z,5.43
2022-11-15T19:05:13.218Z,4.85
2022-11-15T19:10:16.627Z,5.85
2022-11-15T19:15:19.475Z,4.97
2022-11-15T19:20:22.358Z,4.22
2022-11-15T19:25:29.054Z,4.68
2022-11-15T19:30:31.948Z,4.63
2022-11-15T19:35:34.926Z,5.07
2022-11-15T19:40:38.156Z,4.53
2022-11-15T19:45:41.055Z,4.28
2022-11-15T19:50:43.902Z,4.25
2022-11-15T19:56:15.031Z,4.35
2022-11-15T20:01:23.515Z,4.45
2022-11-15T20:06:32.766Z,4.43
2022-11-15T20:11:38.273Z,3.30
2022-11-15T20:16:41.391Z,3.80
2022-11-15T20:21:44.509Z,4.03
2022-11-15T20:26:47.333Z,4.18
2022-11-15T20:31:50.179Z,4.20
2022-11-15T20:36:53.193Z,3.72
2022-11-15T20:41:56.179Z,4.63
2022-11-15T20:46:59.024Z,3.55
2022-11-15T20:52:01.928Z,4.13
2022-11-15T20:57:04.797Z,4.97
2022-11-15T21:02:07.735Z,4.13
2022-11-15T21:07:11.040Z,3.85
2022-11-15T21:12:14.650Z,4.30
2022-11-15T21:17:17.731Z,4.15
2022-11-15T21:22:20.659Z,4.68
2022-11-15T21:27:23.432Z,4.47
2022-11-15T21:32:26.243Z,4.07
2022-11-15T21:37:29.209Z,4.53
2022-11-15T21:42:32.096Z,4.55
2022-11-15T21:47:34.850Z,4.20
2022-11-15T21:52:37.765Z,3.25
2022-11-15T21:57:40.644Z,3.65
2022-11-15T22:02:43.609Z,4.05
2022-11-15T22:07:46.572Z,3.92
2022-11-15T22:12:49.531Z,4.30
2022-11-15T22:17:58.234Z,4.20
2022-11-15T22:23:01.910Z,4.38
2022-11-15T22:28:04.833Z,3.60
2022-11-15T22:33:07.845Z,2.95
2022-11-15T22:38:10.788Z,3.20
2022-11-15T22:43:15.378Z,2.90
2022-11-15T22:48:19.804Z,2.97
2022-11-15T22:53:22.966Z,3.00
2022-11-15T22:58:27.919Z,2.85
2022-11-15T23:03:32.879Z,2.80
2022-11-15T23:08:36.092Z,2.72
2022-11-15T23:13:39.291Z,2.92
2022-11-15T23:18:42.660Z,2.55
2022-11-15T23:23:45.460Z,2.63
2022-11-15T23:28:48.283Z,3.00
2022-11-15T23:34:00.164Z,2.67
2022-11-15T23:39:03.574Z,2.50
2022-11-15T23:44:06.512Z,2.10
2022-11-15T23:49:09.766Z,2.78
2022-11-15T23:54:12.991Z,2.30
2022-11-15T23:59:16.015Z,2.78
